International Virtual Aviation Organisation

Eastern Europe and Northern Asia MCD

 

Карточка аэропорта UOOO

Внимание!
Информация на этой странице в стадии наполнения.
Если вы не увидели какой-то информации, или заметили неточность - пожалуйста сообщите нам!
Спасибо!
Команда RU-STAFF
Название аэропортаАлыкель
Название аэропорта (англ.)Alykel
Превышение574 ft. (175 m.)
Координаты69°19.02', 87°19.02'
Высота перехода1200m
Эшелон переходаQFE>744:FL60;744>QFE>717:FL70;717>QFE:FL80
Коды ответчика5401-5427
Зона ОрВДКрасноярск РПИ (UNKL)
Данные METARUOOO 131900Z 29009MPS 9999 -SN DRSN BKN019 M05/M07 Q1001 R19/39//42 NOSIG RMK QFE734/0979
Проноз погоды (TAF)UOOO 131658Z 1318/1418 29006G13MPS 3200 -SN BLSN BKN006 OVC012 TEMPO 1318/1404 23003G10MPS 1200 SN OVC004 BECMG 1406/1408 36007G14MPS BKN016 BECMG 1410/1412 06003G10MPS 6000 -SN TEMPO 1412/1418 3500 -SN BR FEW004 SCT016 BECMG 1414/1416 18003G10MPS
NOTAMshow/hide NOTAM
AWOS   TABLE

Информация о ВПП

ВПП Длина ВПП (м.) Покрытие Курс ВПП Частота ILS
013430Бетон13109.5
193430Бетон193110.3

Диспетчерские позиции

Позывной Наименование органа УВД Частота
UOOO_APPНорильск - Круг120.400
UOOO_GNDНорильск - Руление121.700
UOOO_TWRНорильск - Старт118.300



Спутниковое изображение